createdAt,value
2023-04-01T00:00:53.364Z,7.70
2023-04-01T00:03:21.615Z,7.80
2023-04-01T00:08:15.821Z,7.70
2023-04-01T00:13:09.839Z,7.60
2023-04-01T00:15:36.707Z,7.60
2023-04-01T00:18:03.460Z,7.60
2023-04-01T00:22:57.424Z,7.60
2023-04-01T00:25:24.388Z,7.70
2023-04-01T00:27:51.233Z,7.60
2023-04-01T00:30:18.110Z,7.60
2023-04-01T00:32:44.901Z,7.70
2023-04-01T00:35:11.839Z,7.70
2023-04-01T00:37:38.721Z,7.70
2023-04-01T00:40:07.473Z,7.70
2023-04-01T00:45:29.214Z,7.70
2023-04-01T00:47:56.428Z,7.70
2023-04-01T00:50:23.871Z,7.70
2023-04-01T00:55:18.030Z,7.60
2023-04-01T00:57:44.762Z,7.60
2023-04-01T01:00:13.732Z,7.60
2023-04-01T01:05:07.910Z,7.60
2023-04-01T01:07:40.805Z,7.70
2023-04-01T01:10:34.357Z,7.70
2023-04-01T01:13:09.985Z,7.70
2023-04-01T01:15:47.115Z,7.70
2023-04-01T01:18:21.226Z,7.70
2023-04-01T01:21:18.676Z,7.70
2023-04-01T01:24:23.411Z,7.70
2023-04-01T01:26:57.216Z,7.70
2023-04-01T01:29:43.155Z,7.60
2023-04-01T01:32:46.635Z,7.50
2023-04-01T01:35:34.599Z,7.70
2023-04-01T01:38:03.918Z,7.70
2023-04-01T01:43:00.954Z,7.70
2023-04-01T01:45:28.157Z,7.60
2023-04-01T01:47:54.906Z,7.60
2023-04-01T01:52:48.970Z,7.50
2023-04-01T01:55:35.007Z,7.40
2023-04-01T01:58:26.356Z,7.30
2023-04-01T02:00:58.337Z,7.30
2023-04-01T02:03:56.452Z,7.30
2023-04-01T02:06:24.613Z,7.30
2023-04-01T02:09:02.134Z,7.30
2023-04-01T02:11:31.694Z,7.20
2023-04-01T02:14:06.541Z,7.20
2023-04-01T02:16:40.250Z,7.20
2023-04-01T02:19:09.857Z,7.20
2023-04-01T02:21:36.550Z,7.20
2023-04-01T02:24:05.274Z,7.20
2023-04-01T02:26:32.094Z,7.10
2023-04-01T02:28:58.952Z,7.20
2023-04-01T02:31:25.685Z,7.10
2023-04-01T02:33:52.413Z,7.00
2023-04-01T02:36:19.169Z,7.00
2023-04-01T02:38:46.128Z,7.00
2023-04-01T02:41:12.804Z,7.00
2023-04-01T02:43:39.426Z,7.00
2023-04-01T02:46:06.104Z,6.90
2023-04-01T02:48:32.737Z,6.90
2023-04-01T02:50:59.361Z,7.00
2023-04-01T02:53:26.194Z,7.00
2023-04-01T02:55:53.526Z,6.90
2023-04-01T02:58:20.380Z,6.80
2023-04-01T03:00:47.237Z,6.90
2023-04-01T03:03:14.599Z,6.80
2023-04-01T03:08:08.520Z,6.70
2023-04-01T03:10:35.208Z,6.70
2023-04-01T03:13:01.849Z,6.70
2023-04-01T03:15:28.519Z,6.60
2023-04-01T03:17:55.310Z,6.80
2023-04-01T03:20:21.984Z,6.80
2023-04-01T03:22:48.768Z,6.80
2023-04-01T03:25:15.588Z,6.80
2023-04-01T03:27:42.271Z,6.80
2023-04-01T03:30:09.421Z,6.80
2023-04-01T03:32:36.321Z,6.70
2023-04-01T03:35:03.117Z,9.80
2023-04-01T03:37:29.842Z,6.90
2023-04-01T03:39:56.574Z,6.80
2023-04-01T03:42:23.235Z,6.80
2023-04-01T03:44:49.911Z,6.70
2023-04-01T03:47:16.670Z,6.70
2023-04-01T03:49:43.392Z,6.70
2023-04-01T03:52:11.797Z,6.60
2023-04-01T03:54:38.573Z,6.60
2023-04-01T03:59:32.687Z,6.80
2023-04-01T04:06:54.738Z,6.80
2023-04-01T04:09:21.803Z,6.80
2023-04-01T04:11:49.177Z,6.80
2023-04-01T04:14:16.322Z,6.80
2023-04-01T04:16:43.093Z,6.80
2023-04-01T04:21:37.198Z,6.80
2023-04-01T04:24:04.076Z,6.80
2023-04-01T04:26:30.813Z,6.70
2023-04-01T04:31:25.153Z,6.80
2023-04-01T04:36:19.998Z,6.60
2023-04-01T04:38:46.876Z,6.60
2023-04-01T04:41:14.789Z,6.50
2023-04-01T04:43:41.920Z,6.50
2023-04-01T04:46:11.900Z,6.40
2023-04-01T04:48:38.667Z,6.40
2023-04-01T04:51:05.463Z,6.40
2023-04-01T04:53:32.284Z,6.40
2023-04-01T04:55:59.122Z,6.50
2023-04-01T04:58:25.814Z,6.50
2023-04-01T05:00:52.529Z,6.60
2023-04-01T05:03:19.608Z,6.60
2023-04-01T05:05:53.461Z,6.70
2023-04-01T05:08:20.325Z,6.60
2023-04-01T05:18:08.537Z,6.80
2023-04-01T05:20:35.516Z,6.70
2023-04-01T05:23:02.333Z,6.80
2023-04-01T05:25:29.005Z,6.90
2023-04-01T05:27:55.828Z,7.00
2023-04-01T05:30:22.536Z,7.00
2023-04-01T05:32:49.313Z,7.00
2023-04-01T05:37:43.219Z,7.00
2023-04-01T05:40:10.390Z,7.10
2023-04-01T05:49:59.829Z,7.10
2023-04-01T05:52:26.696Z,7.20
2023-04-01T05:54:53.430Z,7.10
2023-04-01T05:57:20.542Z,7.10
2023-04-01T05:59:47.399Z,7.10
2023-04-01T06:02:14.138Z,7.20
2023-04-01T06:04:41.382Z,7.30
2023-04-01T06:07:15.363Z,7.30
2023-04-01T06:09:42.265Z,7.40
2023-04-01T06:14:44.938Z,7.60
2023-04-01T06:17:20.119Z,7.70
2023-04-01T06:20:23.953Z,7.70
2023-04-01T06:23:21.501Z,7.70
2023-04-01T06:28:41.316Z,7.70
2023-04-01T06:31:36.329Z,7.70
2023-04-01T06:34:09.728Z,7.70
2023-04-01T06:36:46.235Z,7.80
2023-04-01T06:39:28.810Z,7.90
2023-04-01T06:42:07.907Z,7.90
2023-04-01T06:44:37.985Z,7.90
2023-04-01T06:47:37.358Z,8.00
2023-04-01T06:50:19.561Z,8.00
2023-04-01T06:53:19.324Z,8.10
2023-04-01T06:55:48.410Z,8.20
2023-04-01T06:58:30.960Z,8.30
2023-04-01T07:01:03.758Z,8.30
2023-04-01T07:03:40.115Z,8.30
2023-04-01T07:06:24.899Z,8.40
2023-04-01T07:08:51.593Z,8.40
2023-04-01T07:11:27.375Z,8.40
2023-04-01T07:14:01.091Z,8.30
2023-04-01T07:16:37.025Z,8.50
2023-04-01T07:19:49.053Z,8.50
2023-04-01T07:22:44.469Z,8.60
2023-04-01T07:25:19.243Z,8.70
2023-04-01T07:27:46.315Z,8.90
2023-04-01T07:30:20.856Z,9.00
2023-04-01T07:32:52.574Z,9.10
2023-04-01T07:35:28.828Z,9.00
2023-04-01T07:38:09.333Z,9.10
2023-04-01T07:40:48.452Z,9.10
2023-04-01T07:43:36.714Z,8.90
2023-04-01T07:46:19.727Z,8.90
2023-04-01T07:48:52.287Z,8.90
2023-04-01T07:51:30.298Z,9.10
2023-04-01T07:54:08.792Z,9.00
2023-04-01T07:56:44.485Z,9.00
2023-04-01T07:59:16.949Z,8.90
2023-04-01T08:01:59.594Z,8.90
2023-04-01T08:05:08.061Z,9.00
2023-04-01T08:07:37.400Z,9.10
2023-04-01T08:10:14.330Z,9.10
2023-04-01T08:13:19.980Z,9.10
2023-04-01T08:15:55.769Z,9.10
2023-04-01T08:18:53.332Z,9.40
2023-04-01T08:21:31.594Z,9.50
2023-04-01T08:23:59.113Z,8.40
2023-04-01T08:26:45.406Z,9.80
2023-04-01T08:29:24.827Z,9.80
2023-04-01T08:32:12.001Z,10.00
2023-04-01T08:34:40.318Z,9.90
2023-04-01T08:37:10.782Z,10.00
2023-04-01T08:39:45.729Z,10.00
2023-04-01T08:42:32.000Z,10.00
2023-04-01T08:45:07.481Z,9.90
2023-04-01T08:50:35.694Z,9.90
2023-04-01T08:53:26.349Z,9.80
2023-04-01T08:56:02.237Z,9.70
2023-04-01T08:58:47.546Z,9.70
2023-04-01T09:01:27.784Z,9.80
2023-04-01T09:04:02.450Z,9.80
2023-04-01T09:07:03.463Z,9.90
2023-04-01T09:10:08.624Z,10.00
2023-04-01T09:13:12.662Z,10.20
2023-04-01T09:15:49.548Z,10.20
2023-04-01T09:18:22.930Z,11.40
2023-04-01T09:21:16.978Z,10.60
2023-04-01T09:24:02.530Z,10.70
2023-04-01T09:26:57.269Z,10.70
2023-04-01T09:30:07.771Z,10.60
2023-04-01T09:32:38.965Z,10.30
2023-04-01T09:35:25.092Z,11.60
2023-04-01T09:38:10.766Z,10.50
2023-04-01T09:41:04.165Z,10.50
2023-04-01T09:43:50.234Z,10.50
2023-04-01T09:46:26.496Z,10.40
2023-04-01T09:49:02.022Z,10.40
2023-04-01T09:51:52.814Z,10.70
2023-04-01T09:54:52.607Z,10.50
2023-04-01T09:57:47.270Z,10.60
2023-04-01T10:00:24.266Z,10.30
2023-04-01T10:03:30.000Z,10.30
2023-04-01T10:06:14.841Z,10.20
2023-04-01T10:08:59.435Z,10.10
2023-04-01T10:11:44.479Z,10.00
2023-04-01T10:14:59.762Z,10.10
2023-04-01T10:17:34.653Z,9.80
2023-04-01T10:20:08.481Z,9.80
2023-04-01T10:22:41.507Z,9.90
2023-04-01T10:27:59.878Z,9.80
2023-04-01T10:30:59.669Z,9.60
2023-04-01T10:33:47.976Z,9.60
2023-04-01T10:36:47.636Z,9.30
2023-04-01T10:39:38.538Z,9.20
2023-04-01T10:42:18.175Z,9.00
2023-04-01T10:45:22.856Z,8.80
2023-04-01T10:48:34.000Z,8.80
2023-04-01T10:51:11.765Z,8.70
2023-04-01T10:53:58.041Z,8.60
2023-04-01T10:56:40.422Z,8.50
2023-04-01T10:59:22.215Z,8.50
2023-04-01T11:05:08.297Z,8.40
2023-04-01T11:07:43.998Z,8.40
2023-04-01T11:10:51.011Z,8.40
2023-04-01T11:13:54.259Z,8.30
2023-04-01T11:16:45.952Z,8.30
2023-04-01T11:19:52.120Z,8.30
2023-04-01T11:22:40.601Z,8.40
2023-04-01T11:25:46.058Z,8.30
2023-04-01T11:28:24.855Z,8.30
2023-04-01T11:31:22.858Z,8.30
2023-04-01T11:34:16.538Z,8.30
2023-04-01T11:37:13.917Z,8.20
2023-04-01T11:40:07.125Z,8.30
2023-04-01T11:42:50.926Z,8.30
2023-04-01T11:45:17.718Z,9.90
2023-04-01T11:47:57.494Z,8.50
2023-04-01T11:50:36.157Z,8.50
2023-04-01T11:53:40.622Z,8.60
2023-04-01T11:56:32.946Z,8.70
2023-04-01T11:59:26.630Z,8.70
2023-04-01T12:01:59.929Z,8.60
2023-04-01T12:04:49.535Z,8.50
2023-04-01T12:07:35.045Z,8.60
2023-04-01T12:10:16.855Z,8.70
2023-04-01T12:13:00.795Z,8.60
2023-04-01T12:15:50.029Z,8.60
2023-04-01T12:18:34.802Z,9.00
2023-04-01T12:21:33.261Z,9.00
2023-04-01T12:24:05.860Z,8.90
2023-04-01T12:27:12.150Z,9.00
2023-04-01T12:30:11.442Z,8.90
2023-04-01T12:33:03.900Z,8.90
2023-04-01T12:38:06.412Z,8.70
2023-04-01T12:40:49.477Z,8.90
2023-04-01T12:43:29.586Z,9.00
2023-04-01T12:46:04.394Z,9.30
2023-04-01T12:48:49.351Z,9.30
2023-04-01T12:51:27.840Z,9.10
2023-04-01T12:54:32.750Z,9.10
2023-04-01T12:57:24.913Z,9.10
2023-04-01T13:00:34.085Z,8.90
2023-04-01T13:03:39.023Z,12.40
2023-04-01T13:06:27.316Z,9.00
2023-04-01T13:09:02.978Z,8.90
2023-04-01T13:11:47.519Z,8.90
2023-04-01T13:14:46.480Z,9.10
2023-04-01T13:17:28.108Z,9.10
2023-04-01T13:20:05.766Z,8.90
2023-04-01T13:23:09.601Z,9.10
2023-04-01T13:26:13.118Z,9.10
2023-04-01T13:28:48.589Z,9.10
2023-04-01T13:31:58.555Z,9.10
2023-04-01T13:37:18.405Z,9.30
2023-04-01T13:39:51.590Z,9.30
2023-04-01T13:42:29.810Z,9.50
2023-04-01T13:45:26.069Z,9.60
2023-04-01T13:48:18.959Z,9.70
2023-04-01T13:50:57.380Z,9.90
2023-04-01T13:54:01.314Z,11.90
2023-04-01T13:56:34.114Z,9.80
2023-04-01T13:59:23.689Z,10.30
2023-04-01T14:02:21.477Z,9.80
2023-04-01T14:04:55.929Z,9.80
2023-04-01T14:08:00.350Z,9.70
2023-04-01T14:10:36.833Z,10.00
2023-04-01T14:13:09.004Z,10.00
2023-04-01T14:16:00.793Z,9.90
2023-04-01T14:19:00.479Z,9.90
2023-04-01T14:21:32.929Z,10.00
2023-04-01T14:24:15.035Z,10.00
2023-04-01T14:27:20.445Z,10.00
2023-04-01T14:30:16.299Z,9.80
2023-04-01T14:33:21.144Z,9.80
2023-04-01T14:35:51.235Z,10.10
2023-04-01T14:38:34.713Z,10.00
2023-04-01T14:41:28.847Z,10.00
2023-04-01T14:44:33.368Z,10.00
2023-04-01T14:47:09.439Z,9.80
2023-04-01T14:49:49.882Z,9.80
2023-04-01T14:52:29.144Z,9.70
2023-04-01T14:54:55.886Z,9.60
2023-04-01T14:57:29.984Z,9.50
2023-04-01T15:00:10.306Z,9.50
2023-04-01T15:03:02.335Z,9.70
2023-04-01T15:05:32.262Z,9.70
2023-04-01T15:08:19.048Z,9.80
2023-04-01T15:11:16.558Z,9.80
2023-04-01T15:14:00.295Z,9.90
2023-04-01T15:16:48.446Z,10.00
2023-04-01T15:19:53.472Z,9.90
2023-04-01T15:22:28.774Z,9.90
2023-04-01T15:25:22.561Z,10.10
2023-04-01T15:27:50.358Z,10.10
2023-04-01T15:30:49.378Z,10.30
2023-04-01T15:33:22.609Z,10.10
2023-04-01T15:36:01.746Z,10.10
2023-04-01T15:38:57.310Z,10.10
2023-04-01T15:41:29.322Z,9.90
2023-04-01T15:43:56.063Z,9.90
2023-04-01T15:46:26.086Z,9.90
2023-04-01T15:51:41.511Z,10.00
2023-04-01T15:54:34.008Z,10.00
2023-04-01T15:57:09.574Z,9.80
2023-04-01T15:59:55.552Z,9.90
2023-04-01T16:02:40.507Z,9.90
2023-04-01T16:05:19.211Z,9.80
2023-04-01T16:08:16.512Z,10.00
2023-04-01T16:11:08.122Z,14.20
2023-04-01T16:13:56.395Z,9.90
2023-04-01T16:17:01.818Z,9.90
2023-04-01T16:19:36.294Z,9.80
2023-04-01T16:22:35.048Z,9.80
2023-04-01T16:25:39.497Z,10.50
2023-04-01T16:28:32.860Z,9.70
2023-04-01T16:31:10.360Z,10.50
2023-04-01T16:33:50.871Z,9.70
2023-04-01T16:36:42.174Z,9.60
2023-04-01T16:39:37.307Z,9.60
2023-04-01T16:42:13.136Z,10.30
2023-04-01T16:45:00.421Z,9.50
2023-04-01T16:47:49.856Z,9.50
2023-04-01T16:50:19.354Z,9.40
2023-04-01T16:52:48.826Z,9.50
2023-04-01T16:55:19.985Z,9.50
2023-04-01T16:58:07.306Z,9.40
2023-04-01T17:00:49.539Z,9.30
2023-04-01T17:03:32.139Z,9.30
2023-04-01T17:06:21.550Z,9.30
2023-04-01T17:09:06.622Z,9.30
2023-04-01T17:11:39.418Z,9.20
2023-04-01T17:14:21.793Z,9.20
2023-04-01T17:17:02.889Z,7.80
2023-04-01T17:19:32.762Z,9.10
2023-04-01T17:22:14.312Z,9.10
2023-04-01T17:25:17.146Z,8.90
2023-04-01T17:27:46.786Z,9.00
2023-04-01T17:30:37.449Z,9.00
2023-04-01T17:33:26.171Z,9.00
2023-04-01T17:36:18.095Z,8.90
2023-04-01T17:39:08.340Z,8.80
2023-04-01T17:42:06.339Z,8.90
2023-04-01T17:44:40.019Z,8.90
2023-04-01T17:47:24.867Z,8.90
2023-04-01T17:50:14.481Z,8.80
2023-04-01T17:52:47.889Z,8.80
2023-04-01T17:55:42.588Z,8.80
2023-04-01T17:58:16.634Z,8.70
2023-04-01T18:01:05.386Z,8.70
2023-04-01T18:04:03.085Z,8.60
2023-04-01T18:06:39.572Z,8.50
2023-04-01T18:09:15.400Z,8.60
2023-04-01T18:12:06.121Z,8.50
2023-04-01T18:14:56.060Z,8.50
2023-04-01T18:17:25.985Z,8.50
2023-04-01T18:20:20.516Z,8.40
2023-04-01T18:22:49.784Z,8.40
2023-04-01T18:25:19.804Z,8.40
2023-04-01T18:28:11.920Z,8.30
2023-04-01T18:30:38.623Z,8.30
2023-04-01T18:33:05.420Z,8.40
2023-04-01T18:36:19.092Z,8.40
2023-04-01T18:39:11.060Z,8.40
2023-04-01T18:42:01.288Z,8.40
2023-04-01T18:44:44.435Z,8.50
2023-04-01T18:47:43.804Z,8.40
2023-04-01T18:50:21.254Z,8.40
2023-04-01T18:55:15.511Z,8.40
2023-04-01T18:57:48.152Z,8.40
2023-04-01T19:00:23.388Z,8.50
2023-04-01T19:02:56.524Z,8.50
2023-04-01T19:05:42.219Z,8.40
2023-04-01T19:08:34.612Z,6.30
2023-04-01T19:11:09.565Z,8.50
2023-04-01T19:14:15.116Z,8.30
2023-04-01T19:16:48.230Z,8.50
2023-04-01T19:19:18.802Z,8.50
2023-04-01T19:21:58.186Z,8.50
2023-04-01T19:24:40.238Z,8.50
2023-04-01T19:27:38.650Z,8.50
2023-04-01T19:30:14.425Z,8.50
2023-04-01T19:32:59.776Z,8.50
2023-04-01T19:35:45.732Z,8.50
2023-04-01T19:38:36.990Z,8.50
2023-04-01T19:41:16.991Z,8.50
2023-04-01T19:44:01.073Z,8.40
2023-04-01T19:46:42.501Z,8.50
2023-04-01T19:49:27.881Z,8.40
2023-04-01T19:52:01.946Z,8.50
2023-04-01T19:54:49.991Z,8.40
2023-04-01T19:57:31.250Z,8.40
2023-04-01T20:00:05.127Z,8.40
2023-04-01T20:02:38.028Z,8.40
2023-04-01T20:05:17.799Z,8.40
2023-04-01T20:08:22.080Z,8.40
2023-04-01T20:11:13.989Z,8.50
2023-04-01T20:14:12.678Z,8.40
2023-04-01T20:17:03.708Z,8.40
2023-04-01T20:19:37.009Z,8.40
2023-04-01T20:22:06.318Z,8.40
2023-04-01T20:24:36.958Z,8.30
2023-04-01T20:27:11.691Z,8.30
2023-04-01T20:29:58.963Z,8.30
2023-04-01T20:32:31.608Z,8.30
2023-04-01T20:35:22.503Z,8.30
2023-04-01T20:38:06.972Z,8.20
2023-04-01T20:43:42.658Z,8.20
2023-04-01T20:46:17.902Z,8.10
2023-04-01T20:48:57.450Z,8.10
2023-04-01T20:51:31.244Z,8.10
2023-04-01T20:54:13.025Z,8.00
2023-04-01T20:57:06.319Z,8.10
2023-04-01T20:59:47.943Z,8.00
2023-04-01T21:02:33.594Z,8.00
2023-04-01T21:05:24.832Z,8.00
2023-04-01T21:08:10.375Z,8.00
2023-04-01T21:10:42.043Z,8.00
2023-04-01T21:13:22.520Z,7.90
2023-04-01T21:16:24.890Z,7.90
2023-04-01T21:19:04.261Z,8.00
2023-04-01T21:21:52.770Z,8.00
2023-04-01T21:24:41.085Z,7.90
2023-04-01T21:27:32.185Z,7.90
2023-04-01T21:30:20.560Z,7.90
2023-04-01T21:33:24.936Z,7.80
2023-04-01T21:36:02.216Z,7.70
2023-04-01T21:38:47.001Z,7.70
2023-04-01T21:41:30.051Z,7.70
2023-04-01T21:44:27.849Z,7.60
2023-04-01T21:47:04.982Z,7.60
2023-04-01T21:49:43.806Z,7.50
2023-04-01T21:52:25.940Z,7.50
2023-04-01T21:55:25.985Z,7.50
2023-04-01T21:58:23.829Z,7.40
2023-04-01T22:01:15.108Z,7.30
2023-04-01T22:04:13.068Z,7.20
2023-04-01T22:06:43.515Z,7.30
2023-04-01T22:09:32.919Z,7.30
2023-04-01T22:12:35.157Z,7.30
2023-04-01T22:18:15.285Z,7.30
2023-04-01T22:20:58.510Z,7.30
2023-04-01T22:23:30.053Z,7.30
2023-04-01T22:26:20.906Z,7.30
2023-04-01T22:28:52.838Z,7.40
2023-04-01T22:31:24.603Z,7.30
2023-04-01T22:34:20.576Z,7.30
2023-04-01T22:37:15.181Z,7.10
2023-04-01T22:40:00.047Z,7.10
2023-04-01T22:42:42.970Z,7.00
2023-04-01T22:45:50.118Z,6.90
2023-04-01T22:48:39.663Z,7.00
2023-04-01T22:51:22.953Z,6.90
2023-04-01T22:53:53.477Z,6.80
2023-04-01T22:56:23.107Z,6.80
2023-04-01T22:59:02.928Z,6.90
2023-04-01T23:01:31.828Z,6.90
2023-04-01T23:03:58.600Z,6.80
2023-04-01T23:06:27.844Z,6.90
2023-04-01T23:09:21.905Z,6.90
2023-04-01T23:12:10.293Z,7.00
2023-04-01T23:15:12.986Z,7.00
2023-04-01T23:17:55.672Z,7.00
2023-04-01T23:20:27.637Z,7.00
2023-04-01T23:25:49.283Z,6.90
2023-04-01T23:28:15.985Z,7.00
2023-04-01T23:30:42.611Z,7.00
2023-04-01T23:33:24.578Z,7.00
2023-04-01T23:35:55.858Z,7.10
2023-04-01T23:38:26.346Z,7.00
2023-04-01T23:40:54.688Z,7.00
2023-04-01T23:43:25.677Z,7.10
2023-04-01T23:45:53.447Z,7.10
2023-04-01T23:48:20.597Z,7.10
2023-04-01T23:50:47.248Z,7.20
2023-04-01T23:53:22.331Z,7.20
2023-04-01T23:55:48.994Z,7.20
2023-04-01T23:58:43.488Z,7.20
